Time;durP1;ratioP1;P1;durP2;ratioP2;P2;SDS_P1;SDS_P2;PMS_P1;PMS_P2;Temp;Humidity;BMP_temperature;BMP_pressure;BME280_temperature;BME280_humidity;BME280_pressure;Samples;Min_cycle;Max_cycle;Signal;HPM_P1;HPM_P2
2022/07/13 00:01:16;;;;;;;6.28;2.40;;;25.20;88.20;;;;;;4855881;29;20018;-85
2022/07/13 00:03:42;;;;;;;9.63;2.20;;;25.20;88.40;;;;;;4872490;29;20033;-85
2022/07/13 00:06:07;;;;;;;5.00;2.33;;;25.20;88.40;;;;;;4858166;29;20112;-85
2022/07/13 00:08:33;;;;;;;7.68;1.60;;;25.10;88.10;;;;;;4853693;29;20061;-85
2022/07/13 00:10:59;;;;;;;5.22;2.10;;;25.10;88.70;;;;;;4853398;29;20029;-85
2022/07/13 00:13:25;;;;;;;8.38;2.22;;;25.00;89.50;;;;;;4849623;29;20479;-86
2022/07/13 00:15:51;;;;;;;12.15;2.08;;;25.00;89.40;;;;;;4855061;29;20033;-85
2022/07/13 00:18:16;;;;;;;7.75;2.03;;;25.00;89.70;;;;;;4851506;29;20034;-85
2022/07/13 00:20:43;;;;;;;5.45;2.10;;;24.90;89.50;;;;;;4856126;29;20029;-86
2022/07/13 00:23:09;;;;;;;6.43;2.15;;;24.90;89.40;;;;;;4854174;29;20043;-86
2022/07/13 00:25:35;;;;;;;3.65;2.05;;;24.90;89.60;;;;;;4857616;29;20514;-85
2022/07/13 00:28:00;;;;;;;5.60;2.10;;;24.80;90.00;;;;;;4857169;29;20439;-86
2022/07/13 00:30:26;;;;;;;6.07;2.20;;;24.80;89.80;;;;;;4858207;29;20089;-85
2022/07/13 00:32:52;;;;;;;5.30;2.22;;;24.80;90.00;;;;;;4858931;29;20159;-85
2022/07/13 00:35:17;;;;;;;4.65;2.05;;;24.70;89.80;;;;;;4849054;29;20025;-85
2022/07/13 00:37:43;;;;;;;6.13;2.08;;;24.70;89.90;;;;;;4852503;29;20041;-85
2022/07/13 00:40:09;;;;;;;9.05;2.33;;;24.70;89.80;;;;;;4851924;29;20061;-85
2022/07/13 00:42:35;;;;;;;5.45;2.20;;;24.60;89.70;;;;;;4853060;29;20116;-85
2022/07/13 00:45:01;;;;;;;6.65;2.10;;;24.60;89.40;;;;;;4855166;29;20113;-86
2022/07/13 00:47:32;;;;;;;7.65;2.03;;;24.60;89.40;;;;;;4865579;29;20337;-85
2022/07/13 00:50:04;;;;;;;6.03;2.40;;;24.60;89.60;;;;;;4843426;29;20546;-85
2022/07/13 00:52:30;;;;;;;5.25;2.03;;;24.60;90.40;;;;;;4851271;29;20034;-86
2022/07/13 00:54:56;;;;;;;5.88;2.15;;;24.50;90.30;;;;;;4853667;29;20028;-86
2022/07/13 00:57:23;;;;;;;4.70;1.83;;;24.50;90.50;;;;;;4855776;29;20026;-86
2022/07/13 00:59:49;;;;;;;5.32;2.45;;;24.40;90.40;;;;;;4854393;29;20030;-85
2022/07/13 01:02:15;;;;;;;6.60;2.28;;;24.40;90.40;;;;;;4856909;29;20025;-85
2022/07/13 01:04:41;;;;;;;3.17;2.20;;;24.40;90.50;;;;;;4856337;29;20140;-86
2022/07/13 01:07:06;;;;;;;5.15;2.22;;;24.40;90.60;;;;;;4857768;29;20419;-86
2022/07/13 01:09:32;;;;;;;5.95;2.17;;;24.40;90.90;;;;;;4864110;29;20391;-86
2022/07/13 01:11:59;;;;;;;4.00;2.00;;;24.30;90.80;;;;;;4849579;29;20117;-85
2022/07/13 01:14:26;;;;;;;5.75;2.28;;;24.30;90.80;;;;;;4853028;29;20365;-85
2022/07/13 01:16:51;;;;;;;5.28;2.03;;;24.30;90.90;;;;;;4850626;29;20073;-86
2022/07/13 01:19:18;;;;;;;3.03;1.83;;;24.20;91.00;;;;;;4854700;29;20382;-86
2022/07/13 01:21:46;;;;;;;7.05;2.17;;;24.20;91.20;;;;;;4852218;29;20526;-86
2022/07/13 01:24:12;;;;;;;6.88;2.25;;;24.20;91.50;;;;;;4853729;29;20062;-86
2022/07/13 01:26:39;;;;;;;4.32;2.00;;;24.20;91.60;;;;;;4854593;29;20525;-86
2022/07/13 01:29:06;;;;;;;6.53;2.67;;;24.10;91.80;;;;;;4855877;29;20034;-85
2022/07/13 01:31:36;;;;;;;8.07;2.38;;;24.10;91.90;;;;;;4856157;29;20519;-85
2022/07/13 01:34:02;;;;;;;6.28;2.30;;;24.10;92.00;;;;;;4852018;29;20030;-86
2022/07/13 01:36:28;;;;;;;3.97;1.65;;;24.10;91.80;;;;;;4852687;29;20040;-86
2022/07/13 01:38:54;;;;;;;3.08;1.88;;;24.00;91.70;;;;;;4836149;29;20021;-85
2022/07/13 01:41:21;;;;;;;5.40;2.00;;;24.00;91.40;;;;;;4853705;29;20513;-86
2022/07/13 01:43:48;;;;;;;4.03;1.90;;;24.00;91.50;;;;;;4850531;29;20090;-86
2022/07/13 01:46:13;;;;;;;3.55;1.70;;;24.00;91.30;;;;;;4854606;29;20049;-86
2022/07/13 01:48:39;;;;;;;6.05;1.83;;;24.00;90.80;;;;;;4844175;29;20456;-86
2022/07/13 01:51:05;;;;;;;6.70;1.90;;;24.00;90.90;;;;;;4848079;29;20033;-86
2022/07/13 01:53:31;;;;;;;3.70;1.90;;;23.90;90.20;;;;;;4853750;29;20395;-86
2022/07/13 01:55:56;;;;;;;2.80;1.50;;;23.90;89.20;;;;;;4852355;29;20037;-86
2022/07/13 01:58:22;;;;;;;5.53;1.40;;;23.80;88.90;;;;;;4854574;29;20026;-85
2022/07/13 02:00:47;;;;;;;6.28;1.90;;;23.80;88.30;;;;;;4855093;29;20041;-86
2022/07/13 02:03:13;;;;;;;4.97;1.38;;;23.80;87.80;;;;;;4854761;29;20026;-86
2022/07/13 02:05:39;;;;;;;4.10;1.30;;;23.70;87.60;;;;;;4856674;29;20044;-86
2022/07/13 02:08:05;;;;;;;3.00;1.05;;;23.70;87.40;;;;;;4852853;29;20077;-85
2022/07/13 02:10:37;;;;;;;3.08;1.15;;;23.70;84.90;;;;;;4849648;29;20364;-86
2022/07/13 02:13:04;;;;;;;2.95;1.20;;;23.70;85.10;;;;;;4849647;29;20376;-85
2022/07/13 02:15:30;;;;;;;3.80;1.30;;;23.60;87.00;;;;;;4851491;29;20034;-86
2022/07/13 02:17:56;;;;;;;1.73;0.98;;;23.60;86.70;;;;;;4850604;29;20022;-86
2022/07/13 02:20:21;;;;;;;2.35;0.98;;;23.60;84.70;;;;;;4852076;29;20040;-86
2022/07/13 02:22:47;;;;;;;2.95;1.25;;;23.60;84.20;;;;;;4854469;29;20068;-86
2022/07/13 02:25:13;;;;;;;2.15;1.10;;;23.50;84.10;;;;;;4851841;29;20033;-86
2022/07/13 02:27:40;;;;;;;2.55;1.10;;;23.50;83.40;;;;;;4856062;29;20038;-86
2022/07/13 02:30:06;;;;;;;5.75;1.27;;;23.50;82.30;;;;;;4855749;29;20049;-85
2022/07/13 02:32:32;;;;;;;5.15;1.13;;;23.50;82.40;;;;;;4857350;29;20030;-85
2022/07/13 02:34:58;;;;;;;6.85;1.10;;;23.40;83.50;;;;;;4849636;29;20510;-85
2022/07/13 02:37:23;;;;;;;2.15;1.00;;;23.40;84.00;;;;;;4848450;29;20062;-85
2022/07/13 02:39:51;;;;;;;1.90;0.80;;;23.40;83.70;;;;;;4852608;29;20479;-85
2022/07/13 02:42:17;;;;;;;5.20;1.33;;;23.40;81.90;;;;;;4849110;29;20399;-86
2022/07/13 02:44:42;;;;;;;2.70;0.90;;;23.40;81.10;;;;;;4853637;29;20021;-86
2022/07/13 02:47:08;;;;;;;2.58;0.93;;;23.50;81.40;;;;;;4851620;29;20046;-86
2022/07/13 02:49:34;;;;;;;3.65;0.90;;;23.50;82.00;;;;;;4839955;29;20029;-85
2022/07/13 02:51:59;;;;;;;2.42;1.00;;;23.50;81.90;;;;;;4846370;29;20034;-86
2022/07/13 02:54:26;;;;;;;3.75;1.15;;;23.40;82.00;;;;;;4847743;29;20018;-86
2022/07/13 02:56:51;;;;;;;2.58;1.30;;;23.40;82.90;;;;;;4854287;29;20037;-86
2022/07/13 02:59:17;;;;;;;3.40;1.20;;;23.30;82.80;;;;;;4849517;29;20025;-86
2022/07/13 03:01:43;;;;;;;2.60;1.00;;;23.30;83.80;;;;;;4855582;29;20037;-86
2022/07/13 03:04:09;;;;;;;2.03;0.85;;;23.30;84.20;;;;;;4855754;29;20025;-85
2022/07/13 03:06:34;;;;;;;2.47;0.90;;;23.20;83.70;;;;;;4855788;29;20483;-85
2022/07/13 03:09:00;;;;;;;1.70;1.05;;;23.10;84.10;;;;;;4850484;29;20543;-85
2022/07/13 03:11:25;;;;;;;2.72;1.02;;;23.10;84.20;;;;;;4847366;29;20022;-85
2022/07/13 03:13:51;;;;;;;2.30;1.20;;;23.00;85.20;;;;;;4850761;29;20036;-85
2022/07/13 03:16:17;;;;;;;2.47;1.20;;;23.00;85.80;;;;;;4850609;29;20056;-85
2022/07/13 03:18:42;;;;;;;2.00;1.20;;;22.90;86.30;;;;;;4851001;29;20014;-86
2022/07/13 03:21:08;;;;;;;3.10;1.40;;;22.90;86.60;;;;;;4853625;29;20061;-85
2022/07/13 03:23:35;;;;;;;2.22;1.02;;;22.90;86.90;;;;;;4850612;29;20113;-85
2022/07/13 03:26:00;;;;;;;5.38;1.35;;;22.80;86.50;;;;;;4868937;29;20034;-85
2022/07/13 03:28:26;;;;;;;3.28;1.02;;;22.80;86.60;;;;;;4854514;29;20074;-85
2022/07/13 03:30:52;;;;;;;3.05;1.13;;;22.80;86.30;;;;;;4870110;29;20242;-86
2022/07/13 03:33:17;;;;;;;2.35;1.08;;;22.70;86.60;;;;;;4854439;29;20021;-86
2022/07/13 03:35:43;;;;;;;1.92;1.20;;;22.70;86.60;;;;;;4847105;29;20030;-85
2022/07/13 03:38:08;;;;;;;6.00;1.25;;;22.70;87.00;;;;;;4851846;29;20517;-86
2022/07/13 03:40:34;;;;;;;1.55;1.00;;;22.70;87.00;;;;;;4847759;29;20030;-85
2022/07/13 03:43:01;;;;;;;2.60;1.40;;;22.70;87.10;;;;;;4866929;29;20246;-85
2022/07/13 03:45:27;;;;;;;3.05;1.30;;;22.70;87.00;;;;;;4850347;29;20034;-85
2022/07/13 03:47:52;;;;;;;2.60;1.20;;;22.70;87.50;;;;;;4850076;29;20030;-86
2022/07/13 03:50:18;;;;;;;4.18;1.73;;;22.70;87.20;;;;;;4848087;29;20120;-85
2022/07/13 03:52:44;;;;;;;2.72;1.30;;;22.70;87.70;;;;;;4851923;29;20026;-85
2022/07/13 03:55:09;;;;;;;2.30;1.50;;;22.60;87.30;;;;;;4855107;29;20029;-86
2022/07/13 03:57:35;;;;;;;3.42;1.50;;;22.60;87.30;;;;;;4854812;29;20069;-85
2022/07/13 04:00:01;;;;;;;3.55;1.40;;;22.60;87.60;;;;;;4857357;29;20302;-85
2022/07/13 04:02:26;;;;;;;2.40;1.15;;;22.60;87.60;;;;;;4858045;29;20052;-85
2022/07/13 04:04:52;;;;;;;3.08;1.20;;;22.50;86.80;;;;;;4857699;29;20546;-86
2022/07/13 04:07:17;;;;;;;4.30;1.33;;;22.50;86.50;;;;;;4873464;29;20057;-86
2022/07/13 04:09:43;;;;;;;2.58;1.25;;;22.50;86.90;;;;;;4849540;29;20026;-85
2022/07/13 04:12:09;;;;;;;5.93;1.38;;;22.50;86.90;;;;;;4850808;29;20033;-85
2022/07/13 04:14:34;;;;;;;3.85;1.35;;;22.50;86.60;;;;;;4852639;29;20036;-86
2022/07/13 04:17:00;;;;;;;4.40;1.20;;;22.60;86.50;;;;;;4851508;29;20048;-85
2022/07/13 04:19:26;;;;;;;6.68;1.30;;;22.60;87.00;;;;;;4856178;29;20100;-86
2022/07/13 04:21:51;;;;;;;5.57;1.02;;;22.60;87.10;;;;;;4853663;29;20030;-87
2022/07/13 04:24:17;;;;;;;3.45;1.30;;;22.70;86.70;;;;;;4856242;29;20561;-86
2022/07/13 04:26:42;;;;;;;1.85;0.90;;;22.70;85.90;;;;;;4855908;29;20021;-86
2022/07/13 04:29:08;;;;;;;6.20;1.38;;;22.80;85.50;;;;;;4858462;29;20041;-85
2022/07/13 04:31:34;;;;;;;5.10;1.20;;;22.80;84.70;;;;;;4857009;29;20298;-86
2022/07/13 04:33:59;;;;;;;1.67;0.90;;;22.80;84.20;;;;;;4843381;29;20034;-87
2022/07/13 04:36:25;;;;;;;5.47;1.08;;;23.00;83.90;;;;;;4852225;29;20065;-79
2022/07/13 04:38:51;;;;;;;1.88;0.90;;;23.00;83.60;;;;;;4852980;29;20036;-78
2022/07/13 04:41:16;;;;;;;4.15;1.10;;;23.10;83.00;;;;;;4858848;29;20025;-78
2022/07/13 04:43:45;;;;;;;4.78;1.20;;;23.10;81.60;;;;;;4851956;29;20036;-79
2022/07/13 04:46:12;;;;;;;3.63;1.25;;;23.20;81.20;;;;;;4856039;29;20073;-78
2022/07/13 04:48:38;;;;;;;3.30;1.17;;;23.20;81.80;;;;;;4845023;29;20491;-78
2022/07/13 04:51:04;;;;;;;4.25;0.80;;;23.30;81.40;;;;;;4843793;29;20030;-78
2022/07/13 04:53:30;;;;;;;3.20;0.98;;;23.30;80.40;;;;;;4842518;29;20022;-78
2022/07/13 04:55:56;;;;;;;4.25;0.98;;;23.40;79.70;;;;;;4844131;29;20074;-78
2022/07/13 04:58:22;;;;;;;5.35;1.48;;;23.50;79.40;;;;;;4841761;29;20112;-78
2022/07/13 05:00:48;;;;;;;4.15;0.90;;;23.60;79.50;;;;;;4842389;29;20075;-78
2022/07/13 05:03:14;;;;;;;2.97;1.00;;;23.60;79.10;;;;;;4840981;29;20447;-78
2022/07/13 05:05:39;;;;;;;2.42;1.00;;;23.70;78.50;;;;;;4848621;29;20038;-78
2022/07/13 05:08:05;;;;;;;3.80;1.00;;;23.70;79.30;;;;;;4841595;29;20085;-80
2022/07/13 05:10:31;;;;;;;2.17;1.08;;;23.80;79.10;;;;;;4840222;29;20486;-82
2022/07/13 05:12:57;;;;;;;6.40;1.10;;;23.90;78.90;;;;;;4840205;29;20141;-79
2022/07/13 05:15:23;;;;;;;4.78;1.17;;;24.00;79.30;;;;;;4842810;29;20092;-83
2022/07/13 05:17:50;;;;;;;5.25;1.30;;;24.00;77.90;;;;;;4840334;29;20435;-79
2022/07/13 05:20:16;;;;;;;5.35;1.80;;;24.10;78.10;;;;;;4843728;29;20037;-79
2022/07/13 05:22:41;;;;;;;3.53;1.23;;;24.20;77.70;;;;;;4858920;29;20095;-78
2022/07/13 05:25:07;;;;;;;5.55;1.17;;;24.30;77.50;;;;;;4859421;29;20033;-78
2022/07/13 05:27:33;;;;;;;2.53;0.90;;;24.40;78.30;;;;;;4849586;29;20326;-78
2022/07/13 05:29:59;;;;;;;3.42;1.08;;;24.40;78.30;;;;;;4848833;29;20207;-78
2022/07/13 05:32:24;;;;;;;3.50;1.40;;;24.40;79.10;;;;;;4851289;29;20066;-78
2022/07/13 05:34:50;;;;;;;3.47;1.08;;;24.50;79.00;;;;;;4853599;29;20403;-78
2022/07/13 05:37:16;;;;;;;7.72;1.58;;;24.50;78.10;;;;;;4850592;29;20046;-78
2022/07/13 05:39:46;;;;;;;3.65;1.75;;;24.60;78.30;;;;;;4854955;29;20062;-78
2022/07/13 05:42:13;;;;;;;2.85;1.10;;;24.60;78.30;;;;;;4855686;29;20037;-78
2022/07/13 05:44:39;;;;;;;5.68;1.10;;;24.60;77.80;;;;;;4860075;29;20064;-79
2022/07/13 05:47:05;;;;;;;5.45;1.33;;;24.70;77.60;;;;;;4859744;29;20097;-79
2022/07/13 05:49:32;;;;;;;13.35;1.60;;;24.70;77.00;;;;;;4843425;29;20074;-80
2022/07/13 05:51:57;;;;;;;4.80;1.50;;;24.80;77.40;;;;;;4825634;29;20046;-81
2022/07/13 05:54:23;;;;;;;4.50;1.70;;;24.80;77.50;;;;;;4835648;29;20029;-82
2022/07/13 05:56:49;;;;;;;6.45;1.27;;;24.90;76.90;;;;;;4840772;29;20026;-82
2022/07/13 05:59:14;;;;;;;6.45;1.42;;;24.90;77.30;;;;;;4838775;29;20026;-82
2022/07/13 06:01:40;;;;;;;5.22;1.17;;;25.00;77.40;;;;;;4831819;29;20101;-82
2022/07/13 06:04:06;;;;;;;4.40;1.25;;;25.10;77.20;;;;;;4833597;29;20037;-80
2022/07/13 06:06:31;;;;;;;5.50;1.30;;;25.10;77.00;;;;;;4829242;29;20054;-80
2022/07/13 06:08:57;;;;;;;9.45;1.23;;;25.20;75.90;;;;;;4848527;29;20034;-80
2022/07/13 06:11:22;;;;;;;6.68;1.30;;;25.30;76.50;;;;;;4850835;29;20071;-80
2022/07/13 06:13:48;;;;;;;10.50;1.50;;;25.30;76.00;;;;;;4863371;29;20038;-80
2022/07/13 06:16:14;;;;;;;4.68;1.35;;;25.40;76.80;;;;;;4857982;29;20021;-80
2022/07/13 06:18:39;;;;;;;4.93;1.20;;;25.50;76.60;;;;;;4853243;29;20069;-82
2022/07/13 06:21:05;;;;;;;3.08;1.13;;;25.60;76.30;;;;;;4854099;29;20046;-82
2022/07/13 06:23:31;;;;;;;5.38;1.58;;;25.70;75.90;;;;;;4859608;29;20029;-82
2022/07/13 06:25:58;;;;;;;5.47;1.17;;;25.80;76.20;;;;;;4863343;29;20246;-81
2022/07/13 06:28:24;;;;;;;9.77;1.30;;;25.90;74.90;;;;;;4856350;29;20037;-82
2022/07/13 06:30:50;;;;;;;3.40;1.35;;;25.90;74.70;;;;;;4845305;29;20400;-81
2022/07/13 06:33:15;;;;;;;9.75;1.40;;;26.00;74.80;;;;;;4846094;29;20041;-79
2022/07/13 06:35:41;;;;;;;4.22;1.35;;;26.10;75.00;;;;;;4846776;29;20105;-79
2022/07/13 06:38:07;;;;;;;5.18;1.30;;;26.10;75.00;;;;;;4844742;29;20040;-82
2022/07/13 06:40:33;;;;;;;7.55;1.38;;;26.10;75.70;;;;;;4842936;29;20058;-83
2022/07/13 06:42:59;;;;;;;4.90;1.15;;;26.10;76.20;;;;;;4835686;29;20383;-82
2022/07/13 06:45:25;;;;;;;7.88;1.27;;;26.10;76.10;;;;;;4836867;29;20527;-82
2022/07/13 06:47:51;;;;;;;9.75;1.50;;;26.10;74.90;;;;;;4837640;29;20260;-83
2022/07/13 06:50:18;;;;;;;5.78;1.67;;;26.10;76.20;;;;;;4841361;29;20030;-83
2022/07/13 06:52:44;;;;;;;8.13;1.42;;;26.10;77.30;;;;;;4843149;29;20329;-83
2022/07/13 06:55:11;;;;;;;5.80;1.33;;;26.10;77.70;;;;;;4842604;29;20022;-82
2022/07/13 06:57:37;;;;;;;2.90;1.08;;;26.10;77.90;;;;;;4837889;29;20507;-82
2022/07/13 07:00:05;;;;;;;7.60;1.40;;;26.10;77.10;;;;;;4839550;29;20052;-82
2022/07/13 07:02:30;;;;;;;6.15;1.25;;;26.20;77.00;;;;;;4838235;29;20106;-83
2022/07/13 07:04:56;;;;;;;7.22;1.65;;;26.20;76.00;;;;;;4840914;29;20053;-83
2022/07/13 07:07:22;;;;;;;10.32;1.88;;;26.30;78.80;;;;;;4844498;29;20245;-83
2022/07/13 07:09:48;;;;;;;6.07;1.60;;;26.40;76.60;;;;;;4841465;29;20058;-83
2022/07/13 07:12:13;;;;;;;12.63;2.13;;;26.40;78.20;;;;;;4845522;29;20030;-77
2022/07/13 07:14:40;;;;;;;6.53;1.40;;;26.50;77.00;;;;;;4844599;29;20182;-82
2022/07/13 07:17:06;;;;;;;7.53;2.00;;;26.50;77.50;;;;;;4844293;29;20094;-81
2022/07/13 07:19:31;;;;;;;4.70;1.13;;;26.60;77.00;;;;;;4839819;29;20041;-81
2022/07/13 07:21:57;;;;;;;4.95;1.08;;;26.70;67.90;;;;;;4844098;29;20021;-82
2022/07/13 07:24:23;;;;;;;6.25;1.20;;;26.80;68.60;;;;;;4848333;29;20041;-81
2022/07/13 07:26:49;;;;;;;3.10;1.00;;;26.90;65.30;;;;;;4839122;29;20061;-82
2022/07/13 07:29:15;;;;;;;3.03;1.00;;;26.90;65.20;;;;;;4841154;29;20030;-82
2022/07/13 07:31:41;;;;;;;3.55;1.00;;;27.10;65.70;;;;;;4848285;29;20156;-82
2022/07/13 07:34:06;;;;;;;5.72;1.52;;;27.10;64.10;;;;;;4840093;29;20038;-82
2022/07/13 07:36:32;;;;;;;4.75;1.60;;;27.20;63.40;;;;;;4843296;29;20252;-82
2022/07/13 07:38:58;;;;;;;6.38;1.40;;;27.30;63.50;;;;;;4837359;29;20028;-82
2022/07/13 07:41:23;;;;;;;5.35;1.63;;;27.40;63.30;;;;;;4846792;29;20108;-82
2022/07/13 07:43:49;;;;;;;10.70;1.33;;;27.50;63.30;;;;;;4841565;29;20037;-82
2022/07/13 07:46:15;;;;;;;7.60;1.80;;;27.60;63.30;;;;;;4845923;29;20030;-82
2022/07/13 07:48:41;;;;;;;6.82;1.50;;;27.60;62.50;;;;;;4842367;29;20042;-82
2022/07/13 07:51:07;;;;;;;4.50;1.40;;;27.70;61.90;;;;;;4837687;29;20220;-81
2022/07/13 07:53:33;;;;;;;6.38;1.73;;;27.80;62.50;;;;;;4836794;29;20077;-82
2022/07/13 07:55:58;;;;;;;10.52;2.17;;;27.80;62.40;;;;;;4836534;29;20414;-82
2022/07/13 07:58:24;;;;;;;7.35;1.48;;;27.90;62.70;;;;;;4837756;29;20335;-82
2022/07/13 08:00:50;;;;;;;4.70;1.52;;;28.00;61.00;;;;;;4837846;29;20094;-82
2022/07/13 08:03:16;;;;;;;3.97;1.15;;;28.00;61.00;;;;;;4843971;29;20480;-82
2022/07/13 08:05:45;;;;;;;5.20;1.65;;;28.10;60.30;;;;;;4843915;29;20041;-82
2022/07/13 08:08:10;;;;;;;4.57;1.20;;;28.20;57.70;;;;;;4847663;29;20529;-81
2022/07/13 08:10:36;;;;;;;8.40;1.00;;;28.40;56.60;;;;;;4842014;29;20042;-82
2022/07/13 08:13:03;;;;;;;7.25;1.30;;;28.50;57.00;;;;;;4838933;29;20202;-81
2022/07/13 08:15:30;;;;;;;4.10;1.08;;;28.60;56.70;;;;;;4841822;29;20030;-81
2022/07/13 08:17:58;;;;;;;6.20;1.10;;;28.80;56.20;;;;;;4837488;29;20053;-81
2022/07/13 08:20:24;;;;;;;3.90;1.13;;;28.80;56.60;;;;;;4837188;29;20042;-84
2022/07/13 08:22:50;;;;;;;4.95;0.95;;;28.70;56.60;;;;;;4840245;29;20101;-86
2022/07/13 08:25:16;;;;;;;5.68;1.10;;;28.80;56.60;;;;;;4840585;29;20033;-86
2022/07/13 08:27:42;;;;;;;9.93;1.30;;;28.90;56.30;;;;;;4845943;29;20053;-86
2022/07/13 08:30:08;;;;;;;3.47;1.13;;;29.00;55.30;;;;;;4840613;29;20147;-87
2022/07/13 08:32:34;;;;;;;2.63;0.88;;;29.00;56.20;;;;;;4839831;29;20061;-87
2022/07/13 08:40:27;;;;;;;4.50;0.90;;;29.30;56.00;;;;;;4836318;29;20404;-87
2022/07/13 08:42:53;;;;;;;2.70;0.80;;;29.30;55.80;;;;;;4839284;29;20033;-88
2022/07/13 08:45:19;;;;;;;4.53;0.77;;;29.30;55.90;;;;;;4837883;29;20041;-88
2022/07/13 08:47:47;;;;;;;7.30;1.08;;;29.30;55.50;;;;;;4836185;29;20229;-86
2022/07/13 08:50:13;;;;;;;1.80;0.90;;;29.40;54.30;;;;;;4840396;29;20022;-86
2022/07/13 08:52:42;;;;;;;6.53;1.08;;;29.50;54.30;;;;;;4837203;29;20045;-86
2022/07/13 08:55:08;;;;;;;5.03;1.00;;;29.60;53.80;;;;;;4839849;29;20232;-87
2022/07/13 08:57:38;;;;;;;1.85;0.90;;;29.60;55.60;;;;;;4841021;29;20044;-87
2022/07/13 09:00:10;;;;;;;3.28;0.85;;;29.70;54.20;;;;;;4839715;29;20113;-88
2022/07/13 09:02:36;;;;;;;7.13;1.00;;;29.80;53.70;;;;;;4847191;29;21872;-87
2022/07/13 09:05:06;;;;;;;4.32;1.00;;;29.90;54.70;;;;;;4837798;29;20531;-87
2022/07/13 09:07:34;;;;;;;7.60;1.15;;;30.00;54.60;;;;;;4840568;29;20053;-87
2022/07/13 09:10:02;;;;;;;3.83;1.17;;;30.10;53.90;;;;;;4839051;29;20113;-87
2022/07/13 09:12:28;;;;;;;10.40;1.70;;;30.20;53.80;;;;;;4839468;29;20053;-86
2022/07/13 09:14:56;;;;;;;6.68;1.88;;;30.30;55.80;;;;;;4839074;29;20018;-87
2022/07/13 09:17:43;;;;;;;7.78;1.98;;;30.40;55.70;;;;;;4836816;29;20499;-87
2022/07/13 09:20:12;;;;;;;8.45;1.45;;;30.70;55.40;;;;;;4841234;29;20116;-87
2022/07/13 09:22:52;;;;;;;3.10;1.15;;;30.70;54.80;;;;;;4834497;29;20473;-87
2022/07/13 09:25:38;;;;;;;10.23;1.70;;;30.80;54.60;;;;;;4819582;29;20022;-87
2022/07/13 09:28:11;;;;;;;5.03;1.40;;;31.00;54.80;;;;;;4830912;29;20313;-87
2022/07/13 09:30:40;;;;;;;5.28;1.17;;;31.20;55.30;;;;;;4835118;29;20124;-86
2022/07/13 09:33:06;;;;;;;5.55;1.20;;;31.40;57.80;;;;;;4840336;29;20098;-87
2022/07/13 09:35:41;;;;;;;7.75;2.25;;;31.60;55.60;;;;;;4838978;29;20361;-86
2022/07/13 09:38:07;;;;;;;4.18;0.85;;;31.80;56.00;;;;;;4834014;29;20098;-87
2022/07/13 09:40:33;;;;;;;4.80;1.00;;;32.00;57.00;;;;;;4838675;29;20025;-87
2022/07/13 09:46:09;;;;;;;3.28;1.00;;;32.40;55.50;;;;;;4837630;29;20045;-87
2022/07/13 09:48:38;;;;;;;5.55;1.30;;;32.50;55.00;;;;;;4839034;29;20041;-87
2022/07/13 09:51:07;;;;;;;5.40;1.00;;;32.50;54.60;;;;;;4853698;29;20078;-87
2022/07/13 09:53:34;;;;;;;3.92;0.70;;;32.50;55.40;;;;;;4863694;29;20202;-86
2022/07/13 09:56:02;;;;;;;8.43;1.00;;;32.60;55.90;;;;;;4864258;29;20053;-87
2022/07/13 09:58:30;;;;;;;4.22;1.00;;;32.70;55.70;;;;;;4797690;29;20449;-87
2022/07/13 10:00:58;;;;;;;2.95;0.85;;;32.90;55.40;;;;;;4812034;29;20029;-86
2022/07/13 10:03:30;;;;;;;2.97;0.70;;;32.80;53.50;;;;;;4807460;29;20631;-88
2022/07/13 10:05:58;;;;;;;3.40;1.10;;;32.60;54.60;;;;;;4804212;29;20076;-87
2022/07/13 10:08:23;;;;;;;4.32;1.00;;;32.60;53.80;;;;;;4802195;29;20531;-87
2022/07/13 10:10:50;;;;;;;3.40;0.90;;;32.60;54.40;;;;;;4804818;29;20143;-87
2022/07/13 10:13:17;;;;;;;1.60;0.85;;;32.70;54.40;;;;;;4804521;29;20091;-87
2022/07/13 10:15:47;;;;;;;4.00;1.20;;;32.80;51.40;;;;;;4804053;29;20031;-87
2022/07/13 10:18:28;;;;;;;2.83;1.00;;;32.90;48.40;;;;;;4805112;29;20570;-87
2022/07/13 10:21:33;;;;;;;3.10;0.80;;;32.90;48.50;;;;;;4802593;29;20268;-87
2022/07/13 10:23:59;;;;;;;1.23;0.77;;;33.00;48.70;;;;;;4805291;29;20039;-88
2022/07/13 10:26:25;;;;;;;1.38;0.85;;;33.00;48.70;;;;;;4804037;29;20083;-87
2022/07/13 10:29:11;;;;;;;5.95;0.90;;;33.10;50.20;;;;;;4802640;29;20035;-86
2022/07/13 10:31:39;;;;;;;7.25;0.80;;;33.20;50.00;;;;;;4802628;29;20061;-87
2022/07/13 10:34:06;;;;;;;3.35;1.00;;;33.40;50.00;;;;;;4804845;29;20087;-87
2022/07/13 10:36:50;;;;;;;3.03;0.80;;;33.50;49.60;;;;;;4802763;29;20023;-87
2022/07/13 10:39:16;;;;;;;3.70;1.08;;;33.70;48.50;;;;;;4817156;29;20034;-86
2022/07/13 10:42:07;;;;;;;5.18;0.93;;;33.50;49.00;;;;;;4804895;29;20045;-87
2022/07/13 10:44:43;;;;;;;1.77;0.80;;;33.30;49.50;;;;;;4802431;29;20125;-87
2022/07/13 10:47:12;;;;;;;2.80;0.90;;;33.30;49.80;;;;;;4802199;29;20031;-87
2022/07/13 10:49:48;;;;;;;1.70;1.00;;;33.40;49.90;;;;;;4802524;29;20078;-88
2022/07/13 10:52:22;;;;;;;6.32;1.05;;;33.50;50.40;;;;;;4801610;29;20106;-84
2022/07/13 10:55:22;;;;;;;2.47;0.68;;;33.80;50.50;;;;;;4802577;29;20038;-86
2022/07/13 10:57:48;;;;;;;5.05;0.82;;;34.20;48.70;;;;;;4804227;29;20035;-87
2022/07/13 11:00:19;;;;;;;5.40;0.98;;;34.30;48.20;;;;;;4809909;29;20469;-87
2022/07/13 11:02:50;;;;;;;3.75;0.82;;;34.40;48.10;;;;;;4808212;29;20272;-87
2022/07/13 11:05:26;;;;;;;6.25;0.90;;;34.20;48.40;;;;;;4804828;29;20042;-87
2022/07/13 11:07:52;;;;;;;2.13;0.65;;;34.20;48.90;;;;;;4805210;29;20268;-87
2022/07/13 11:10:19;;;;;;;4.65;1.00;;;34.40;48.40;;;;;;4803893;29;20054;-86
2022/07/13 11:13:15;;;;;;;1.70;0.90;;;34.40;48.40;;;;;;4803285;29;20512;-86
2022/07/13 11:15:49;;;;;;;4.70;0.90;;;34.60;47.80;;;;;;4804171;29;20023;-86
2022/07/13 11:18:21;;;;;;;1.45;0.60;;;34.80;48.60;;;;;;4803422;29;20031;-87
2022/07/13 11:21:10;;;;;;;4.97;1.08;;;34.80;48.60;;;;;;4805902;29;20248;-86
2022/07/13 11:26:48;;;;;;;2.13;0.73;;;35.40;47.80;;;;;;4804582;29;20041;-86
2022/07/13 11:29:42;;;;;;;1.15;0.60;;;35.80;47.40;;;;;;4801235;29;20030;-86
2022/07/13 11:32:08;;;;;;;1.30;0.90;;;36.20;46.70;;;;;;4801946;29;20058;-85
2022/07/13 11:34:35;;;;;;;4.60;0.90;;;36.60;46.50;;;;;;4807314;29;20062;-85
2022/07/13 11:37:01;;;;;;;3.15;0.77;;;37.00;46.10;;;;;;4805434;29;20043;-87
2022/07/13 11:39:32;;;;;;;3.22;0.90;;;37.20;44.90;;;;;;4803561;29;20027;-86
2022/07/13 11:41:59;;;;;;;2.08;0.80;;;37.20;44.60;;;;;;4803616;29;20419;-86
2022/07/13 11:44:30;;;;;;;2.67;0.98;;;37.20;44.50;;;;;;4821522;29;20545;-85
2022/07/13 11:47:01;;;;;;;5.32;0.63;;;37.10;45.10;;;;;;4807013;29;20035;-85
2022/07/13 11:49:27;;;;;;;1.80;0.70;;;37.00;44.10;;;;;;4803786;29;20031;-85
2022/07/13 11:51:54;;;;;;;2.85;0.80;;;36.90;45.00;;;;;;4803513;29;20034;-85
2022/07/13 11:54:22;;;;;;;4.13;0.70;;;36.90;44.90;;;;;;4803888;29;20424;-84
2022/07/13 11:56:58;;;;;;;2.42;1.20;;;37.00;45.70;;;;;;4803760;29;20030;-85
2022/07/13 11:59:36;;;;;;;2.67;0.70;;;36.90;45.50;;;;;;4808732;29;20034;-85
2022/07/13 12:02:03;;;;;;;4.35;0.80;;;36.70;45.80;;;;;;4817411;29;20033;-85
2022/07/13 12:04:29;;;;;;;2.78;0.90;;;36.40;45.60;;;;;;4804026;29;20019;-85
2022/07/13 12:07:16;;;;;;;1.92;0.98;;;36.70;45.60;;;;;;4803493;29;20062;-84
2022/07/13 12:09:59;;;;;;;2.22;0.80;;;36.80;46.20;;;;;;4803349;29;20019;-85
2022/07/13 12:12:45;;;;;;;1.08;0.80;;;36.70;47.00;;;;;;4802283;29;20039;-84
2022/07/13 12:15:11;;;;;;;2.55;0.88;;;36.80;44.80;;;;;;4802746;29;20035;-84
2022/07/13 12:17:45;;;;;;;8.07;1.27;;;36.80;44.80;;;;;;4803488;29;20034;-85
2022/07/13 12:20:15;;;;;;;1.35;0.70;;;36.60;44.30;;;;;;4802210;29;20343;-84
2022/07/13 12:22:57;;;;;;;0.88;0.70;;;36.60;44.90;;;;;;4805411;29;20493;-85
2022/07/13 12:25:32;;;;;;;3.47;0.93;;;36.90;45.50;;;;;;4807962;29;20532;-85
2022/07/13 12:27:59;;;;;;;2.85;0.80;;;37.20;45.00;;;;;;4800819;29;20042;-84
2022/07/13 12:30:25;;;;;;;1.55;0.70;;;37.50;44.60;;;;;;4803546;29;20119;-84
2022/07/13 12:33:00;;;;;;;3.53;0.90;;;37.50;45.10;;;;;;4803234;29;20026;-84
2022/07/13 12:35:37;;;;;;;0.68;0.50;;;37.70;44.50;;;;;;4802150;29;20045;-84
2022/07/13 12:38:05;;;;;;;1.38;0.80;;;38.00;44.50;;;;;;4806886;29;20091;-84
2022/07/13 12:40:41;;;;;;;3.22;0.80;;;38.20;44.30;;;;;;4804880;29;20112;-84
2022/07/13 12:43:21;;;;;;;1.00;0.55;;;38.40;44.40;;;;;;4803092;29;20505;-84
2022/07/13 12:45:51;;;;;;;1.83;0.70;;;38.40;44.80;;;;;;4802467;29;20091;-84
2022/07/13 12:48:20;;;;;;;3.47;0.80;;;38.50;43.90;;;;;;4803445;29;20106;-85
2022/07/13 12:51:06;;;;;;;1.02;0.50;;;38.60;43.40;;;;;;4803423;29;20034;-84
2022/07/13 12:53:53;;;;;;;2.67;0.90;;;39.10;44.00;;;;;;4799508;29;20039;-84
2022/07/13 12:56:24;;;;;;;2.35;0.90;;;39.70;44.30;;;;;;4807393;29;20103;-84
2022/07/13 12:59:01;;;;;;;1.20;0.60;;;39.90;43.50;;;;;;4804306;29;20054;-86
2022/07/13 13:01:31;;;;;;;2.15;0.80;;;40.10;43.10;;;;;;4802941;29;20030;-86